Veterans Administration, Ohio
Current Conditions -  °F | °C
As of 2:53 AM on Friday 31 Oct 2014 (Local Time) from KMGY Reporting Station
Overcast Overcast  
Wind Chill: 43°   Ceiling: 6500
Heat Index: 43°   Visibility: 10mi
Dew Point: 36°   Wind: 0mph
Humidity: 76%   Direction: NA
Pressure: 30.01"   Gusts: NA
Location:  39.7511°N, 84.2493°W
Report Text: KMGY 310653Z AUTO 00000KT 10SM FEW050 OVC065 06/02 A3001 RMK AO2 SLP164 T00610022
Loading
Personal Weather Stations






























Interactive Weather Map
Tropical Storm Tracking
New forecast layout! Learn more

10-Day Weather Forecast

Advertisements
Track Severe Weather on mobile